createdAt,value
2023-03-02T00:00:16.698Z,16.20
2023-03-02T00:03:04.128Z,14.93
2023-03-02T00:05:49.637Z,15.57
2023-03-02T00:08:35.581Z,16.00
2023-03-02T00:11:21.639Z,16.07
2023-03-02T00:14:07.529Z,16.77
2023-03-02T00:16:52.987Z,15.97
2023-03-02T00:19:39.103Z,15.13
2023-03-02T00:22:24.683Z,15.83
2023-03-02T00:25:11.811Z,16.10
2023-03-02T00:27:57.093Z,17.70
2023-03-02T00:30:42.708Z,16.10
2023-03-02T00:33:28.316Z,16.37
2023-03-02T00:36:18.351Z,17.60
2023-03-02T00:39:04.834Z,18.07
2023-03-02T00:41:50.498Z,15.63
2023-03-02T00:44:35.752Z,16.73
2023-03-02T00:47:21.272Z,18.13
2023-03-02T00:50:07.066Z,16.97
2023-03-02T00:52:52.534Z,17.10
2023-03-02T00:55:38.475Z,17.90
2023-03-02T00:58:23.726Z,15.63
2023-03-02T01:01:11.555Z,17.40
2023-03-02T01:03:57.016Z,16.13
2023-03-02T01:06:47.260Z,17.03
2023-03-02T01:09:33.042Z,15.27
2023-03-02T01:12:19.424Z,18.23
2023-03-02T01:15:06.336Z,17.90
2023-03-02T01:17:52.126Z,17.73
2023-03-02T01:24:18.862Z,17.70
2023-03-02T01:27:04.515Z,17.67
2023-03-02T01:29:50.771Z,17.93
2023-03-02T01:32:36.231Z,16.83
2023-03-02T01:35:21.874Z,16.97
2023-03-02T01:38:07.369Z,17.20
2023-03-02T01:40:52.848Z,17.53
2023-03-02T01:43:38.944Z,18.00
2023-03-02T01:46:28.275Z,16.70
2023-03-02T01:49:15.373Z,17.63
2023-03-02T01:52:01.198Z,17.90
2023-03-02T01:54:49.923Z,16.40
2023-03-02T01:57:43.554Z,17.97
2023-03-02T02:00:36.672Z,18.07
2023-03-02T02:03:26.349Z,18.23
2023-03-02T02:06:38.097Z,17.87
2023-03-02T02:09:25.326Z,19.13
2023-03-02T02:12:20.047Z,18.50
2023-03-02T02:17:54.349Z,17.07
2023-03-02T02:20:47.815Z,18.17
2023-03-02T02:23:56.737Z,17.50
2023-03-02T02:26:46.557Z,17.40
2023-03-02T02:29:35.034Z,16.83
2023-03-02T02:32:27.508Z,17.30
2023-03-02T02:35:19.934Z,17.53
2023-03-02T02:38:08.267Z,16.93
2023-03-02T02:41:00.029Z,17.73
2023-03-02T02:43:45.644Z,18.03
2023-03-02T02:46:32.965Z,18.30
2023-03-02T02:49:36.620Z,18.60
2023-03-02T02:52:27.815Z,18.10
2023-03-02T02:55:16.684Z,17.40
2023-03-02T02:58:10.038Z,17.27
2023-03-02T03:00:55.493Z,18.00
2023-03-02T03:03:47.377Z,17.73
2023-03-02T03:06:38.321Z,19.47
2023-03-02T03:09:24.468Z,19.00
2023-03-02T03:12:20.343Z,18.40
2023-03-02T03:15:06.727Z,18.47
2023-03-02T03:17:56.962Z,18.83
2023-03-02T03:20:42.554Z,18.17
2023-03-02T03:23:28.080Z,20.40
2023-03-02T03:26:13.700Z,19.07
2023-03-02T03:28:59.422Z,19.87
2023-03-02T03:31:45.082Z,19.67
2023-03-02T03:34:31.490Z,19.73
2023-03-02T03:37:19.572Z,21.13
2023-03-02T03:40:06.738Z,20.40
2023-03-02T03:42:51.999Z,20.70
2023-03-02T03:45:37.580Z,20.40
2023-03-02T03:48:23.151Z,18.73
2023-03-02T03:51:10.742Z,18.43
2023-03-02T03:54:02.074Z,19.83
2023-03-02T03:56:49.205Z,18.93
2023-03-02T03:59:34.568Z,21.73
2023-03-02T04:02:20.936Z,18.57
2023-03-02T04:05:08.258Z,20.90
2023-03-02T04:07:53.944Z,20.73
2023-03-02T04:10:40.079Z,21.00
2023-03-02T04:13:26.234Z,19.87
2023-03-02T04:16:11.890Z,20.37
2023-03-02T04:18:58.463Z,21.03
2023-03-02T04:21:47.015Z,20.57
2023-03-02T04:24:32.823Z,18.93
2023-03-02T04:27:19.185Z,21.10
2023-03-02T04:30:05.847Z,20.63
2023-03-02T04:32:51.359Z,20.30
2023-03-02T04:35:37.220Z,20.50
2023-03-02T04:38:23.448Z,19.87
2023-03-02T04:41:09.029Z,21.57
2023-03-02T04:43:54.466Z,20.33
2023-03-02T04:46:40.348Z,20.37
2023-03-02T04:49:26.705Z,21.67
2023-03-02T04:52:12.480Z,19.83
2023-03-02T04:54:57.868Z,20.10
2023-03-02T04:57:43.431Z,21.27
2023-03-02T05:00:28.958Z,20.87
2023-03-02T05:03:14.604Z,20.07
2023-03-02T05:06:02.197Z,21.27
2023-03-02T05:08:48.155Z,19.50
2023-03-02T05:11:34.551Z,20.57
2023-03-02T05:14:19.971Z,21.53
2023-03-02T05:17:05.283Z,21.77
2023-03-02T05:19:50.744Z,21.67
2023-03-02T05:22:36.280Z,20.50
2023-03-02T05:25:22.585Z,20.40
2023-03-02T05:28:07.853Z,22.33
2023-03-02T05:30:53.831Z,21.27
2023-03-02T05:33:39.328Z,22.07
2023-03-02T05:36:24.723Z,21.10
2023-03-02T05:39:09.993Z,20.83
2023-03-02T05:41:55.617Z,21.73
2023-03-02T05:44:41.158Z,22.00
2023-03-02T05:47:26.528Z,21.60
2023-03-02T05:50:12.114Z,20.37
2023-03-02T05:52:58.425Z,20.90
2023-03-02T05:55:43.897Z,22.37
2023-03-02T05:58:29.784Z,22.37
2023-03-02T06:01:15.687Z,22.77
2023-03-02T06:04:01.359Z,20.67
2023-03-02T06:06:47.031Z,20.80
2023-03-02T06:09:32.459Z,21.37
2023-03-02T06:12:18.197Z,20.20
2023-03-02T06:15:05.179Z,21.43
2023-03-02T06:17:50.905Z,21.07
2023-03-02T06:20:36.229Z,20.30
2023-03-02T06:23:21.757Z,22.93
2023-03-02T06:26:09.478Z,22.60
2023-03-02T06:28:54.878Z,21.23
2023-03-02T06:31:40.181Z,22.40
2023-03-02T06:34:26.148Z,21.47
2023-03-02T06:37:11.740Z,22.70
2023-03-02T06:39:58.315Z,23.80
2023-03-02T06:42:43.823Z,24.00
2023-03-02T06:45:29.624Z,23.20
2023-03-02T06:48:16.036Z,24.27
2023-03-02T06:51:01.230Z,23.27
2023-03-02T06:53:46.665Z,23.80
2023-03-02T06:56:32.831Z,23.50
2023-03-02T06:59:18.444Z,23.10
2023-03-02T07:02:04.131Z,23.00
2023-03-02T07:04:49.313Z,21.77
2023-03-02T07:07:34.895Z,21.63
2023-03-02T07:10:20.286Z,23.63
2023-03-02T07:13:08.042Z,23.07
2023-03-02T07:15:54.991Z,23.13
2023-03-02T07:18:40.774Z,22.07
2023-03-02T07:21:26.180Z,22.17
2023-03-02T07:24:11.606Z,21.43
2023-03-02T07:26:57.108Z,20.10
2023-03-02T07:29:42.811Z,19.67
2023-03-02T07:32:28.596Z,20.27
2023-03-02T07:35:13.770Z,20.67
2023-03-02T07:37:59.431Z,19.20
2023-03-02T07:40:45.221Z,20.10
2023-03-02T07:43:30.905Z,21.83
2023-03-02T07:46:16.544Z,20.17
2023-03-02T07:49:01.783Z,21.93
2023-03-02T07:51:47.393Z,19.33
2023-03-02T07:54:33.039Z,22.33
2023-03-02T07:57:18.412Z,20.37
2023-03-02T08:00:05.197Z,19.83
2023-03-02T08:02:50.649Z,19.57
2023-03-02T08:05:36.107Z,18.73
2023-03-02T08:08:21.386Z,18.17
2023-03-02T08:11:13.419Z,18.33
2023-03-02T08:14:03.376Z,19.00
2023-03-02T08:16:48.742Z,18.90
2023-03-02T08:19:34.482Z,18.27
2023-03-02T08:22:20.061Z,18.37
2023-03-02T08:25:07.324Z,18.53
2023-03-02T08:27:52.529Z,17.23
2023-03-02T08:30:38.575Z,16.93
2023-03-02T08:33:25.756Z,17.07
2023-03-02T08:36:18.266Z,17.40
2023-03-02T08:39:03.593Z,16.70
2023-03-02T08:41:54.794Z,16.20
2023-03-02T08:44:40.489Z,17.33
2023-03-02T08:47:26.039Z,16.53
2023-03-02T08:50:11.623Z,16.33
2023-03-02T08:52:56.871Z,17.17
2023-03-02T08:55:42.388Z,17.07
2023-03-02T08:58:28.217Z,17.10
2023-03-02T09:01:18.506Z,17.67
2023-03-02T09:04:05.841Z,16.17
2023-03-02T09:06:51.427Z,17.70
2023-03-02T09:09:37.121Z,16.37
2023-03-02T09:12:22.684Z,17.80
2023-03-02T09:15:08.543Z,18.10
2023-03-02T09:17:53.857Z,18.60
2023-03-02T09:20:39.496Z,19.10
2023-03-02T09:23:26.556Z,17.17
2023-03-02T09:26:12.012Z,17.07
2023-03-02T09:28:57.901Z,17.07
2023-03-02T09:31:43.444Z,17.43
2023-03-02T09:34:29.459Z,18.53
2023-03-02T09:37:15.294Z,17.80
2023-03-02T09:40:00.656Z,17.27
2023-03-02T09:42:51.971Z,17.03
2023-03-02T09:46:28.577Z,17.70
2023-03-02T09:49:31.926Z,17.17
2023-03-02T09:52:40.443Z,18.27
2023-03-02T09:55:32.196Z,17.90
2023-03-02T09:58:20.562Z,19.10
2023-03-02T10:01:16.832Z,17.33
2023-03-02T10:04:15.027Z,17.73
2023-03-02T10:07:35.999Z,18.43
2023-03-02T10:10:56.312Z,17.80
2023-03-02T10:13:47.700Z,16.93
2023-03-02T10:16:46.310Z,17.93
2023-03-02T10:19:47.631Z,19.07
2023-03-02T10:22:43.395Z,17.07
2023-03-02T10:25:48.716Z,17.13
2023-03-02T10:28:44.350Z,17.63
2023-03-02T10:31:32.916Z,18.43
2023-03-02T10:34:28.302Z,17.93
2023-03-02T10:37:16.720Z,17.80
2023-03-02T10:40:02.160Z,16.83
2023-03-02T10:42:48.964Z,19.20
2023-03-02T10:45:35.041Z,17.10
2023-03-02T10:48:20.807Z,18.33
2023-03-02T10:51:06.129Z,18.27
2023-03-02T10:54:13.961Z,19.10
2023-03-02T10:57:05.861Z,17.77
2023-03-02T10:59:52.120Z,18.73
2023-03-02T11:02:38.026Z,18.20
2023-03-02T11:05:33.990Z,18.80
2023-03-02T11:08:22.721Z,18.73
2023-03-02T11:11:22.402Z,18.97
2023-03-02T11:14:16.467Z,17.10
2023-03-02T11:17:03.581Z,18.50
2023-03-02T11:19:50.930Z,18.60
2023-03-02T11:22:49.936Z,17.65
2023-03-02T11:25:44.953Z,18.83
2023-03-02T11:28:56.894Z,18.17
2023-03-02T11:31:50.530Z,18.98
2023-03-02T11:34:51.029Z,18.13
2023-03-02T11:37:49.972Z,17.63
2023-03-02T11:40:58.487Z,18.55
2023-03-02T11:43:43.872Z,19.33
2023-03-02T11:46:32.255Z,18.20
2023-03-02T11:49:24.468Z,19.15
2023-03-02T11:52:20.252Z,18.75
2023-03-02T11:55:17.799Z,18.00
2023-03-02T11:58:04.819Z,19.30
2023-03-02T12:00:51.270Z,18.55
2023-03-02T12:03:40.829Z,18.80
2023-03-02T12:06:29.858Z,18.55
2023-03-02T12:09:24.581Z,19.77
2023-03-02T12:12:25.416Z,18.08
2023-03-02T12:15:38.800Z,18.75
2023-03-02T12:18:24.863Z,18.50
2023-03-02T12:21:22.171Z,19.00
2023-03-02T12:24:24.916Z,19.10
2023-03-02T12:27:13.354Z,19.30
2023-03-02T12:30:23.413Z,29.45
2023-03-02T12:33:11.824Z,21.95
2023-03-02T12:36:18.596Z,19.30
2023-03-02T12:39:07.095Z,32.90
2023-03-02T12:42:17.642Z,22.48
2023-03-02T12:45:43.397Z,19.05
2023-03-02T12:48:36.184Z,18.17
2023-03-02T12:51:25.418Z,18.50
2023-03-02T12:54:17.062Z,18.92
2023-03-02T12:57:17.508Z,18.05
2023-03-02T13:00:05.386Z,19.10
2023-03-02T13:02:53.638Z,18.80
2023-03-02T13:05:38.864Z,19.15
2023-03-02T13:08:28.787Z,18.30
2023-03-02T13:11:22.589Z,19.10
2023-03-02T13:14:25.956Z,19.30
2023-03-02T13:17:31.627Z,18.65
2023-03-02T13:20:27.429Z,18.25
2023-03-02T13:23:17.170Z,18.98
2023-03-02T13:26:05.519Z,18.58
2023-03-02T13:29:20.830Z,19.02
2023-03-02T13:32:26.754Z,18.80
2023-03-02T13:35:28.069Z,16.85
2023-03-02T13:38:18.679Z,18.48
2023-03-02T13:41:04.136Z,17.77
2023-03-02T13:43:49.774Z,18.13
2023-03-02T13:46:36.357Z,18.15
2023-03-02T13:49:34.315Z,18.08
2023-03-02T13:52:30.071Z,17.98
2023-03-02T13:55:18.040Z,17.67
2023-03-02T13:58:03.573Z,17.58
2023-03-02T14:00:49.693Z,17.98
2023-03-02T14:03:35.065Z,18.20
2023-03-02T14:06:20.830Z,18.23
2023-03-02T14:09:06.311Z,17.58
2023-03-02T14:11:54.579Z,16.83
2023-03-02T14:14:41.036Z,17.52
2023-03-02T14:17:27.143Z,17.35
2023-03-02T14:20:15.421Z,17.55
2023-03-02T14:23:03.495Z,17.20
2023-03-02T14:25:50.563Z,17.65
2023-03-02T14:28:36.112Z,17.52
2023-03-02T14:31:21.526Z,17.15
2023-03-02T14:34:09.361Z,18.00
2023-03-02T14:36:58.679Z,17.30
2023-03-02T14:39:55.616Z,16.15
2023-03-02T14:42:40.873Z,17.90
2023-03-02T14:45:26.344Z,15.73
2023-03-02T14:48:11.928Z,17.77
2023-03-02T14:50:59.733Z,16.55
2023-03-02T14:53:47.789Z,16.17
2023-03-02T14:56:33.368Z,17.48
2023-03-02T14:59:19.089Z,17.90
2023-03-02T15:02:19.064Z,17.77
2023-03-02T15:05:10.020Z,16.05
2023-03-02T15:07:58.702Z,16.75
2023-03-02T15:10:44.228Z,17.00
2023-03-02T15:13:29.473Z,16.90
2023-03-02T15:16:15.539Z,18.77
2023-03-02T15:19:00.823Z,16.88
2023-03-02T15:21:46.590Z,16.85
2023-03-02T15:24:33.383Z,16.98
2023-03-02T15:27:19.332Z,17.40
2023-03-02T15:30:05.609Z,17.10
2023-03-02T15:32:53.199Z,16.33
2023-03-02T15:35:39.635Z,15.75
2023-03-02T15:38:25.450Z,16.48
2023-03-02T15:41:13.156Z,17.02
2023-03-02T15:43:58.522Z,16.20
2023-03-02T15:46:44.253Z,16.63
2023-03-02T15:49:32.200Z,17.90
2023-03-02T15:52:19.728Z,17.10
2023-03-02T15:55:05.609Z,17.35
2023-03-02T15:57:51.861Z,18.88
2023-03-02T16:00:37.886Z,18.45
2023-03-02T16:03:24.356Z,18.40
2023-03-02T16:06:10.288Z,17.33
2023-03-02T16:08:55.898Z,17.38
2023-03-02T16:11:41.407Z,17.23
2023-03-02T16:14:26.908Z,18.38
2023-03-02T16:17:12.465Z,17.65
2023-03-02T16:19:58.188Z,19.00
2023-03-02T16:22:43.630Z,18.15
2023-03-02T16:25:29.161Z,18.08
2023-03-02T16:28:15.908Z,18.13
2023-03-02T16:31:05.911Z,17.88
2023-03-02T16:33:51.643Z,18.17
2023-03-02T16:36:39.379Z,18.17
2023-03-02T16:39:24.826Z,17.83
2023-03-02T16:42:10.396Z,17.58
2023-03-02T16:44:56.031Z,17.95
2023-03-02T16:47:41.581Z,18.30
2023-03-02T16:50:27.055Z,17.77
2023-03-02T16:53:15.509Z,17.73
2023-03-02T16:56:01.010Z,17.42
2023-03-02T16:58:46.546Z,18.30
2023-03-02T17:01:32.110Z,19.05
2023-03-02T17:04:18.528Z,17.15
2023-03-02T17:07:05.946Z,18.13
2023-03-02T17:09:51.155Z,17.00
2023-03-02T17:12:36.700Z,17.17
2023-03-02T17:15:22.185Z,16.98
2023-03-02T17:18:07.392Z,18.60
2023-03-02T17:20:53.693Z,17.77
2023-03-02T17:23:39.738Z,17.52
2023-03-02T17:26:25.341Z,18.02
2023-03-02T17:29:10.601Z,17.63
2023-03-02T17:31:56.340Z,17.17
2023-03-02T17:34:43.319Z,17.50
2023-03-02T17:37:30.352Z,18.73
2023-03-02T17:40:17.807Z,18.30
2023-03-02T17:43:03.072Z,18.20
2023-03-02T17:45:48.498Z,18.95
2023-03-02T17:48:33.973Z,18.73
2023-03-02T17:51:19.582Z,19.53
2023-03-02T17:54:05.077Z,19.50
2023-03-02T17:56:50.363Z,19.67
2023-03-02T17:59:35.862Z,20.10
2023-03-02T18:06:31.689Z,19.03
2023-03-02T18:09:16.975Z,21.80
2023-03-02T18:12:03.481Z,21.57
2023-03-02T18:14:48.867Z,19.30
2023-03-02T18:17:34.613Z,22.20
2023-03-02T18:20:20.250Z,20.80
2023-03-02T18:23:05.565Z,20.83
2023-03-02T18:25:51.260Z,21.90
2023-03-02T18:28:36.778Z,33.27
2023-03-02T18:31:22.682Z,27.37
2023-03-02T18:34:08.280Z,24.97
2023-03-02T18:36:53.622Z,21.80
2023-03-02T18:39:39.461Z,22.10
2023-03-02T18:42:25.042Z,21.70
2023-03-02T18:45:21.677Z,21.23
2023-03-02T18:48:07.276Z,21.53
2023-03-02T18:50:52.714Z,21.10
2023-03-02T18:53:38.198Z,21.67
2023-03-02T18:56:24.082Z,21.53
2023-03-02T18:59:09.891Z,23.43
2023-03-02T19:01:55.138Z,23.50
2023-03-02T19:04:40.702Z,22.07
2023-03-02T19:07:25.952Z,23.10
2023-03-02T19:10:12.078Z,22.27
2023-03-02T19:12:57.367Z,23.17
2023-03-02T19:15:43.385Z,21.37
2023-03-02T19:18:30.071Z,20.53
2023-03-02T19:21:16.319Z,19.63
2023-03-02T19:24:01.870Z,21.10
2023-03-02T19:26:47.129Z,22.07
2023-03-02T19:29:32.498Z,23.27
2023-03-02T19:32:20.127Z,23.67
2023-03-02T19:35:05.972Z,23.23
2023-03-02T19:37:52.029Z,21.37
2023-03-02T19:40:38.151Z,21.33
2023-03-02T19:43:24.467Z,20.17
2023-03-02T19:46:10.945Z,21.57
2023-03-02T19:48:56.357Z,20.17
2023-03-02T19:51:41.925Z,22.40
2023-03-02T19:54:27.693Z,23.00
2023-03-02T19:57:13.238Z,20.50
2023-03-02T19:59:59.452Z,21.53
2023-03-02T20:02:47.297Z,22.53
2023-03-02T20:05:32.939Z,24.40
2023-03-02T20:08:21.625Z,21.40
2023-03-02T20:11:06.981Z,20.00
2023-03-02T20:13:53.229Z,20.37
2023-03-02T20:16:39.990Z,21.33
2023-03-02T20:19:25.629Z,22.33
2023-03-02T20:22:11.220Z,22.03
2023-03-02T20:24:56.764Z,22.90
2023-03-02T20:27:42.743Z,22.13
2023-03-02T20:30:42.691Z,21.40
2023-03-02T20:33:33.022Z,21.23
2023-03-02T20:36:30.340Z,22.47
2023-03-02T20:39:18.518Z,21.87
2023-03-02T20:42:04.615Z,21.53
2023-03-02T20:44:49.867Z,21.73
2023-03-02T20:47:35.664Z,22.97
2023-03-02T20:50:26.034Z,25.10
2023-03-02T20:53:12.363Z,23.93
2023-03-02T20:55:58.092Z,22.27
2023-03-02T20:58:44.689Z,23.60
2023-03-02T21:01:30.251Z,23.10
2023-03-02T21:04:15.652Z,23.50
2023-03-02T21:07:00.984Z,21.03
2023-03-02T21:09:46.561Z,20.07
2023-03-02T21:12:33.338Z,21.53
2023-03-02T21:15:20.273Z,21.33
2023-03-02T21:18:05.754Z,19.93
2023-03-02T21:20:51.289Z,22.57
2023-03-02T21:23:36.635Z,21.77
2023-03-02T21:26:22.577Z,20.90
2023-03-02T21:29:09.460Z,23.50
2023-03-02T21:31:55.227Z,23.63
2023-03-02T21:34:40.632Z,23.00
2023-03-02T21:37:27.232Z,22.83
2023-03-02T21:40:17.302Z,22.70
2023-03-02T21:43:03.439Z,22.73
2023-03-02T21:45:49.212Z,23.33
2023-03-02T21:48:34.694Z,22.00
2023-03-02T21:51:20.716Z,22.33
2023-03-02T21:54:06.390Z,21.83
2023-03-02T21:56:51.818Z,24.20
2023-03-02T21:59:37.559Z,20.87
2023-03-02T22:02:22.712Z,21.07
2023-03-02T22:05:08.417Z,20.03
2023-03-02T22:07:53.868Z,21.80
2023-03-02T22:10:47.486Z,21.20
2023-03-02T22:13:34.116Z,20.20
2023-03-02T22:16:22.603Z,23.40
2023-03-02T22:19:29.390Z,22.90
2023-03-02T22:22:23.168Z,23.93
2023-03-02T22:25:16.101Z,21.03
2023-03-02T22:28:01.706Z,22.57
2023-03-02T22:30:48.159Z,22.07
2023-03-02T22:33:34.005Z,20.17
2023-03-02T22:36:22.734Z,22.27
2023-03-02T22:39:15.392Z,22.00
2023-03-02T22:42:12.183Z,21.30
2023-03-02T22:45:12.938Z,21.63
2023-03-02T22:47:59.421Z,23.43
2023-03-02T22:50:46.888Z,22.90
2023-03-02T22:53:43.323Z,22.23
2023-03-02T22:56:36.896Z,22.53
2023-03-02T22:59:25.195Z,22.93
2023-03-02T23:02:18.248Z,23.30
2023-03-02T23:05:28.350Z,21.93
2023-03-02T23:08:24.424Z,20.87
2023-03-02T23:11:16.607Z,20.90
2023-03-02T23:14:07.104Z,21.20
2023-03-02T23:17:16.945Z,21.83
2023-03-02T23:20:03.982Z,23.80
2023-03-02T23:22:50.077Z,23.13
2023-03-02T23:25:35.619Z,21.60
2023-03-02T23:28:21.170Z,23.43
2023-03-02T23:31:07.085Z,22.77
2023-03-02T23:33:52.396Z,23.83
2023-03-02T23:36:38.146Z,23.20
2023-03-02T23:39:23.787Z,21.37
2023-03-02T23:42:09.251Z,19.93
2023-03-02T23:44:55.661Z,21.90
2023-03-02T23:47:41.089Z,21.87
2023-03-02T23:50:26.562Z,23.00
2023-03-02T23:53:12.302Z,23.13
2023-03-02T23:55:57.700Z,22.23
2023-03-02T23:58:43.047Z,22.83
